sensor_id;sensor_type;location;lat;lon;timestamp;P1;durP1;ratioP1;P2;durP2;ratioP2
23712;SDS011;12035;49.978;8.298;2024-02-21T00:04:14;9.25;;;3.38;;
23712;SDS011;12035;49.978;8.298;2024-02-21T00:09:12;8.75;;;3.03;;
23712;SDS011;12035;49.978;8.298;2024-02-21T00:14:09;8.43;;;3.17;;
23712;SDS011;12035;49.978;8.298;2024-02-21T00:19:07;10.32;;;3.15;;
23712;SDS011;12035;49.978;8.298;2024-02-21T00:24:04;8.20;;;2.85;;
23712;SDS011;12035;49.978;8.298;2024-02-21T00:29:02;9.95;;;3.50;;
23712;SDS011;12035;49.978;8.298;2024-02-21T00:33:59;10.30;;;3.20;;
23712;SDS011;12035;49.978;8.298;2024-02-21T00:38:57;7.97;;;2.47;;
23712;SDS011;12035;49.978;8.298;2024-02-21T00:43:54;8.43;;;2.78;;
23712;SDS011;12035;49.978;8.298;2024-02-21T00:48:51;8.85;;;3.20;;
23712;SDS011;12035;49.978;8.298;2024-02-21T00:53:48;12.23;;;3.28;;
23712;SDS011;12035;49.978;8.298;2024-02-21T00:58:46;8.38;;;2.78;;
23712;SDS011;12035;49.978;8.298;2024-02-21T01:03:43;9.80;;;2.95;;
23712;SDS011;12035;49.978;8.298;2024-02-21T01:08:40;7.28;;;2.85;;
23712;SDS011;12035;49.978;8.298;2024-02-21T01:13:37;8.20;;;2.90;;
23712;SDS011;12035;49.978;8.298;2024-02-21T01:18:38;7.53;;;3.05;;
23712;SDS011;12035;49.978;8.298;2024-02-21T01:23:35;9.07;;;2.83;;
23712;SDS011;12035;49.978;8.298;2024-02-21T01:28:33;9.52;;;2.90;;
23712;SDS011;12035;49.978;8.298;2024-02-21T01:33:30;8.55;;;2.90;;
23712;SDS011;12035;49.978;8.298;2024-02-21T01:38:31;9.80;;;3.47;;
23712;SDS011;12035;49.978;8.298;2024-02-21T01:43:28;8.70;;;3.28;;
23712;SDS011;12035;49.978;8.298;2024-02-21T01:48:25;10.02;;;3.17;;
23712;SDS011;12035;49.978;8.298;2024-02-21T01:53:23;7.63;;;3.20;;
23712;SDS011;12035;49.978;8.298;2024-02-21T01:58:26;11.13;;;3.08;;
23712;SDS011;12035;49.978;8.298;2024-02-21T02:03:26;10.55;;;3.00;;
23712;SDS011;12035;49.978;8.298;2024-02-21T02:08:23;10.13;;;3.05;;
23712;SDS011;12035;49.978;8.298;2024-02-21T02:13:20;9.73;;;2.50;;
23712;SDS011;12035;49.978;8.298;2024-02-21T02:18:19;7.10;;;2.53;;
23712;SDS011;12035;49.978;8.298;2024-02-21T02:23:20;10.60;;;3.00;;
23712;SDS011;12035;49.978;8.298;2024-02-21T02:28:19;8.70;;;2.83;;
23712;SDS011;12035;49.978;8.298;2024-02-21T02:33:17;7.53;;;2.95;;
23712;SDS011;12035;49.978;8.298;2024-02-21T02:38:15;9.25;;;2.60;;
23712;SDS011;12035;49.978;8.298;2024-02-21T02:43:13;11.25;;;2.58;;
23712;SDS011;12035;49.978;8.298;2024-02-21T02:48:10;9.02;;;2.20;;
23712;SDS011;12035;49.978;8.298;2024-02-21T02:53:07;11.10;;;2.17;;
23712;SDS011;12035;49.978;8.298;2024-02-21T02:58:04;10.68;;;2.60;;
23712;SDS011;12035;49.978;8.298;2024-02-21T03:03:03;8.90;;;2.42;;
23712;SDS011;12035;49.978;8.298;2024-02-21T03:08:04;8.02;;;2.42;;
23712;SDS011;12035;49.978;8.298;2024-02-21T03:13:02;5.88;;;2.03;;
23712;SDS011;12035;49.978;8.298;2024-02-21T03:17:59;7.85;;;2.00;;
23712;SDS011;12035;49.978;8.298;2024-02-21T03:22:58;8.00;;;2.42;;
23712;SDS011;12035;49.978;8.298;2024-02-21T03:27:55;10.88;;;3.47;;
23712;SDS011;12035;49.978;8.298;2024-02-21T03:32:52;11.63;;;2.72;;
23712;SDS011;12035;49.978;8.298;2024-02-21T03:37:49;9.63;;;3.00;;
23712;SDS011;12035;49.978;8.298;2024-02-21T03:42:47;8.20;;;2.63;;
23712;SDS011;12035;49.978;8.298;2024-02-21T03:47:44;7.97;;;2.53;;
23712;SDS011;12035;49.978;8.298;2024-02-21T03:52:41;9.60;;;2.45;;
23712;SDS011;12035;49.978;8.298;2024-02-21T03:57:38;6.28;;;2.47;;
23712;SDS011;12035;49.978;8.298;2024-02-21T04:02:37;7.30;;;2.60;;
23712;SDS011;12035;49.978;8.298;2024-02-21T04:07:34;8.07;;;2.60;;
23712;SDS011;12035;49.978;8.298;2024-02-21T04:12:31;6.50;;;2.92;;
23712;SDS011;12035;49.978;8.298;2024-02-21T04:17:28;9.20;;;2.70;;
23712;SDS011;12035;49.978;8.298;2024-02-21T04:22:26;7.50;;;2.70;;
23712;SDS011;12035;49.978;8.298;2024-02-21T04:27:23;12.00;;;3.25;;
23712;SDS011;12035;49.978;8.298;2024-02-21T04:32:20;7.35;;;2.55;;
23712;SDS011;12035;49.978;8.298;2024-02-21T04:37:17;8.88;;;2.85;;
23712;SDS011;12035;49.978;8.298;2024-02-21T04:42:16;9.02;;;2.88;;
23712;SDS011;12035;49.978;8.298;2024-02-21T04:47:13;9.18;;;3.08;;
23712;SDS011;12035;49.978;8.298;2024-02-21T04:52:10;9.15;;;3.33;;
23712;SDS011;12035;49.978;8.298;2024-02-21T04:57:07;8.98;;;2.83;;
23712;SDS011;12035;49.978;8.298;2024-02-21T05:02:06;9.07;;;3.00;;
23712;SDS011;12035;49.978;8.298;2024-02-21T05:07:04;11.32;;;3.42;;
23712;SDS011;12035;49.978;8.298;2024-02-21T05:12:01;9.07;;;3.17;;
23712;SDS011;12035;49.978;8.298;2024-02-21T05:16:58;6.93;;;3.05;;
23712;SDS011;12035;49.978;8.298;2024-02-21T05:21:58;6.57;;;2.97;;
23712;SDS011;12035;49.978;8.298;2024-02-21T05:26:55;9.63;;;3.85;;
23712;SDS011;12035;49.978;8.298;2024-02-21T05:31:55;7.90;;;3.42;;
23712;SDS011;12035;49.978;8.298;2024-02-21T05:36:53;7.63;;;3.25;;
23712;SDS011;12035;49.978;8.298;2024-02-21T05:41:52;12.00;;;3.70;;
23712;SDS011;12035;49.978;8.298;2024-02-21T05:46:49;11.48;;;3.40;;
23712;SDS011;12035;49.978;8.298;2024-02-21T05:51:46;7.97;;;3.72;;
23712;SDS011;12035;49.978;8.298;2024-02-21T05:56:44;7.22;;;3.05;;
23712;SDS011;12035;49.978;8.298;2024-02-21T06:01:43;7.20;;;3.08;;
23712;SDS011;12035;49.978;8.298;2024-02-21T06:06:40;6.32;;;2.88;;
23712;SDS011;12035;49.978;8.298;2024-02-21T06:11:37;15.40;;;3.55;;
23712;SDS011;12035;49.978;8.298;2024-02-21T06:16:34;9.35;;;3.20;;
23712;SDS011;12035;49.978;8.298;2024-02-21T06:21:33;8.07;;;3.60;;
23712;SDS011;12035;49.978;8.298;2024-02-21T06:26:30;5.63;;;2.80;;
23712;SDS011;12035;49.978;8.298;2024-02-21T06:31:27;12.25;;;3.50;;
23712;SDS011;12035;49.978;8.298;2024-02-21T06:36:26;7.65;;;3.63;;
23712;SDS011;12035;49.978;8.298;2024-02-21T06:41:24;10.75;;;3.80;;
23712;SDS011;12035;49.978;8.298;2024-02-21T06:46:24;9.45;;;3.97;;
23712;SDS011;12035;49.978;8.298;2024-02-21T06:51:23;8.40;;;4.00;;
23712;SDS011;12035;49.978;8.298;2024-02-21T06:56:22;9.05;;;3.85;;
23712;SDS011;12035;49.978;8.298;2024-02-21T07:01:23;12.82;;;4.38;;
23712;SDS011;12035;49.978;8.298;2024-02-21T07:06:20;10.20;;;4.18;;
23712;SDS011;12035;49.978;8.298;2024-02-21T07:11:18;6.68;;;4.07;;
23712;SDS011;12035;49.978;8.298;2024-02-21T07:16:16;9.35;;;3.45;;
23712;SDS011;12035;49.978;8.298;2024-02-21T07:21:13;9.88;;;3.45;;
23712;SDS011;12035;49.978;8.298;2024-02-21T07:26:10;7.10;;;3.08;;
23712;SDS011;12035;49.978;8.298;2024-02-21T07:31:07;7.53;;;3.13;;
23712;SDS011;12035;49.978;8.298;2024-02-21T07:36:07;6.20;;;2.72;;
23712;SDS011;12035;49.978;8.298;2024-02-21T07:41:06;8.80;;;3.17;;
23712;SDS011;12035;49.978;8.298;2024-02-21T07:46:03;7.70;;;2.67;;
23712;SDS011;12035;49.978;8.298;2024-02-21T07:51:00;9.00;;;2.65;;
23712;SDS011;12035;49.978;8.298;2024-02-21T07:55:59;8.32;;;2.70;;
23712;SDS011;12035;49.978;8.298;2024-02-21T08:00:57;6.82;;;2.75;;
23712;SDS011;12035;49.978;8.298;2024-02-21T08:05:53;8.27;;;2.22;;
23712;SDS011;12035;49.978;8.298;2024-02-21T08:10:51;7.47;;;2.13;;
23712;SDS011;12035;49.978;8.298;2024-02-21T08:15:49;8.45;;;2.70;;
23712;SDS011;12035;49.978;8.298;2024-02-21T08:20:46;8.38;;;1.92;;
23712;SDS011;12035;49.978;8.298;2024-02-21T08:25:43;6.88;;;2.33;;
23712;SDS011;12035;49.978;8.298;2024-02-21T08:30:40;7.40;;;2.17;;
23712;SDS011;12035;49.978;8.298;2024-02-21T08:35:40;7.40;;;2.20;;
23712;SDS011;12035;49.978;8.298;2024-02-21T08:40:37;7.53;;;2.72;;
23712;SDS011;12035;49.978;8.298;2024-02-21T08:45:34;4.72;;;1.70;;
23712;SDS011;12035;49.978;8.298;2024-02-21T08:50:31;9.45;;;2.90;;
23712;SDS011;12035;49.978;8.298;2024-02-21T08:55:30;9.45;;;2.47;;
23712;SDS011;12035;49.978;8.298;2024-02-21T09:00:27;7.57;;;2.22;;
23712;SDS011;12035;49.978;8.298;2024-02-21T09:05:24;5.93;;;1.90;;
23712;SDS011;12035;49.978;8.298;2024-02-21T09:10:21;7.65;;;2.28;;
23712;SDS011;12035;49.978;8.298;2024-02-21T09:15:19;15.55;;;3.08;;
23712;SDS011;12035;49.978;8.298;2024-02-21T09:20:16;8.32;;;2.42;;
23712;SDS011;12035;49.978;8.298;2024-02-21T09:25:13;8.82;;;2.47;;
23712;SDS011;12035;49.978;8.298;2024-02-21T09:30:11;9.05;;;2.30;;
23712;SDS011;12035;49.978;8.298;2024-02-21T09:35:10;7.70;;;2.10;;
23712;SDS011;12035;49.978;8.298;2024-02-21T09:40:08;8.40;;;2.10;;
23712;SDS011;12035;49.978;8.298;2024-02-21T09:45:07;7.80;;;2.38;;
23712;SDS011;12035;49.978;8.298;2024-02-21T09:50:12;6.03;;;1.80;;
23712;SDS011;12035;49.978;8.298;2024-02-21T09:55:10;8.55;;;2.20;;
23712;SDS011;12035;49.978;8.298;2024-02-21T10:00:09;8.40;;;2.30;;
23712;SDS011;12035;49.978;8.298;2024-02-21T10:05:17;6.38;;;2.53;;
23712;SDS011;12035;49.978;8.298;2024-02-21T10:10:15;9.02;;;2.10;;
23712;SDS011;12035;49.978;8.298;2024-02-21T10:15:12;7.68;;;2.20;;
23712;SDS011;12035;49.978;8.298;2024-02-21T10:20:09;11.30;;;2.63;;
23712;SDS011;12035;49.978;8.298;2024-02-21T10:25:11;6.25;;;2.15;;
23712;SDS011;12035;49.978;8.298;2024-02-21T10:30:12;10.90;;;2.42;;
23712;SDS011;12035;49.978;8.298;2024-02-21T10:35:11;10.02;;;2.42;;
23712;SDS011;12035;49.978;8.298;2024-02-21T10:40:09;7.38;;;2.10;;
23712;SDS011;12035;49.978;8.298;2024-02-21T10:45:08;7.60;;;2.50;;
23712;SDS011;12035;49.978;8.298;2024-02-21T10:50:06;6.85;;;2.40;;
23712;SDS011;12035;49.978;8.298;2024-02-21T10:55:09;5.40;;;1.80;;
23712;SDS011;12035;49.978;8.298;2024-02-21T11:00:13;7.50;;;1.90;;
23712;SDS011;12035;49.978;8.298;2024-02-21T11:05:14;6.13;;;1.80;;
23712;SDS011;12035;49.978;8.298;2024-02-21T11:10:22;6.35;;;1.50;;
23712;SDS011;12035;49.978;8.298;2024-02-21T11:15:24;6.22;;;1.83;;
23712;SDS011;12035;49.978;8.298;2024-02-21T11:20:31;7.53;;;2.28;;
23712;SDS011;12035;49.978;8.298;2024-02-21T11:25:30;6.53;;;1.95;;
23712;SDS011;12035;49.978;8.298;2024-02-21T11:30:29;9.52;;;2.78;;
23712;SDS011;12035;49.978;8.298;2024-02-21T11:35:30;9.00;;;2.00;;
23712;SDS011;12035;49.978;8.298;2024-02-21T11:40:28;9.07;;;2.38;;
23712;SDS011;12035;49.978;8.298;2024-02-21T11:45:27;8.00;;;2.15;;
23712;SDS011;12035;49.978;8.298;2024-02-21T11:50:24;9.65;;;2.42;;
23712;SDS011;12035;49.978;8.298;2024-02-21T11:55:21;8.23;;;2.17;;
23712;SDS011;12035;49.978;8.298;2024-02-21T12:00:23;8.20;;;2.00;;
23712;SDS011;12035;49.978;8.298;2024-02-21T12:05:22;6.55;;;2.17;;
23712;SDS011;12035;49.978;8.298;2024-02-21T12:10:22;11.73;;;2.70;;
23712;SDS011;12035;49.978;8.298;2024-02-21T12:15:19;8.98;;;2.10;;
23712;SDS011;12035;49.978;8.298;2024-02-21T12:20:17;5.60;;;2.03;;
23712;SDS011;12035;49.978;8.298;2024-02-21T12:25:15;7.15;;;2.60;;
23712;SDS011;12035;49.978;8.298;2024-02-21T12:30:14;8.07;;;2.40;;
23712;SDS011;12035;49.978;8.298;2024-02-21T12:35:11;8.18;;;2.08;;
23712;SDS011;12035;49.978;8.298;2024-02-21T12:40:10;12.35;;;2.38;;
23712;SDS011;12035;49.978;8.298;2024-02-21T12:45:08;7.00;;;2.40;;
23712;SDS011;12035;49.978;8.298;2024-02-21T12:50:07;6.95;;;2.17;;
23712;SDS011;12035;49.978;8.298;2024-02-21T12:55:05;6.55;;;2.35;;
23712;SDS011;12035;49.978;8.298;2024-02-21T13:00:07;8.38;;;2.38;;
23712;SDS011;12035;49.978;8.298;2024-02-21T13:05:06;8.07;;;2.10;;
23712;SDS011;12035;49.978;8.298;2024-02-21T13:10:04;7.05;;;2.53;;
23712;SDS011;12035;49.978;8.298;2024-02-21T13:15:03;6.93;;;2.10;;
23712;SDS011;12035;49.978;8.298;2024-02-21T13:20:05;7.55;;;1.70;;
23712;SDS011;12035;49.978;8.298;2024-02-21T13:25:05;5.10;;;1.85;;
23712;SDS011;12035;49.978;8.298;2024-02-21T13:30:04;6.15;;;1.85;;
23712;SDS011;12035;49.978;8.298;2024-02-21T13:35:05;7.28;;;1.63;;
23712;SDS011;12035;49.978;8.298;2024-02-21T13:40:03;6.40;;;1.77;;
23712;SDS011;12035;49.978;8.298;2024-02-21T13:45:04;6.40;;;1.60;;
23712;SDS011;12035;49.978;8.298;2024-02-21T13:50:04;7.47;;;2.10;;
23712;SDS011;12035;49.978;8.298;2024-02-21T13:55:04;7.25;;;2.25;;
23712;SDS011;12035;49.978;8.298;2024-02-21T14:00:08;6.43;;;1.48;;
23712;SDS011;12035;49.978;8.298;2024-02-21T14:05:06;6.07;;;1.70;;
23712;SDS011;12035;49.978;8.298;2024-02-21T14:10:04;5.65;;;1.52;;
23712;SDS011;12035;49.978;8.298;2024-02-21T14:15:04;7.45;;;1.27;;
23712;SDS011;12035;49.978;8.298;2024-02-21T14:20:05;5.55;;;1.48;;
23712;SDS011;12035;49.978;8.298;2024-02-21T14:25:03;7.20;;;1.65;;
23712;SDS011;12035;49.978;8.298;2024-02-21T14:30:01;4.43;;;1.33;;
23712;SDS011;12035;49.978;8.298;2024-02-21T14:35:00;5.70;;;1.70;;
23712;SDS011;12035;49.978;8.298;2024-02-21T14:39:57;4.13;;;1.25;;
23712;SDS011;12035;49.978;8.298;2024-02-21T14:44:55;7.15;;;1.73;;
23712;SDS011;12035;49.978;8.298;2024-02-21T14:50:01;4.65;;;1.30;;
23712;SDS011;12035;49.978;8.298;2024-02-21T14:54:59;6.28;;;1.58;;
23712;SDS011;12035;49.978;8.298;2024-02-21T14:59:58;3.90;;;1.50;;
23712;SDS011;12035;49.978;8.298;2024-02-21T15:04:54;5.45;;;1.35;;
23712;SDS011;12035;49.978;8.298;2024-02-21T15:09:53;6.53;;;1.60;;
23712;SDS011;12035;49.978;8.298;2024-02-21T15:14:50;5.93;;;1.50;;
23712;SDS011;12035;49.978;8.298;2024-02-21T15:19:47;7.03;;;1.60;;
23712;SDS011;12035;49.978;8.298;2024-02-21T15:24:45;6.85;;;2.28;;
23712;SDS011;12035;49.978;8.298;2024-02-21T15:29:45;5.93;;;2.10;;
23712;SDS011;12035;49.978;8.298;2024-02-21T15:34:42;9.05;;;2.65;;
23712;SDS011;12035;49.978;8.298;2024-02-21T15:39:38;4.85;;;1.98;;
23712;SDS011;12035;49.978;8.298;2024-02-21T15:44:36;7.72;;;1.88;;
23712;SDS011;12035;49.978;8.298;2024-02-21T15:49:35;5.43;;;1.88;;
23712;SDS011;12035;49.978;8.298;2024-02-21T15:54:32;4.90;;;1.88;;
23712;SDS011;12035;49.978;8.298;2024-02-21T15:59:31;5.70;;;1.88;;
23712;SDS011;12035;49.978;8.298;2024-02-21T16:04:28;7.68;;;1.90;;
23712;SDS011;12035;49.978;8.298;2024-02-21T16:09:27;4.88;;;1.70;;
23712;SDS011;12035;49.978;8.298;2024-02-21T16:14:25;5.60;;;1.80;;
23712;SDS011;12035;49.978;8.298;2024-02-21T16:19:22;8.48;;;2.22;;
23712;SDS011;12035;49.978;8.298;2024-02-21T16:24:19;5.55;;;2.15;;
23712;SDS011;12035;49.978;8.298;2024-02-21T16:29:18;6.22;;;1.60;;
23712;SDS011;12035;49.978;8.298;2024-02-21T16:34:16;7.35;;;1.75;;
23712;SDS011;12035;49.978;8.298;2024-02-21T16:39:13;6.32;;;2.22;;
23712;SDS011;12035;49.978;8.298;2024-02-21T16:44:11;6.88;;;2.08;;
23712;SDS011;12035;49.978;8.298;2024-02-21T16:49:09;7.05;;;2.30;;
23712;SDS011;12035;49.978;8.298;2024-02-21T16:54:06;6.32;;;1.65;;
23712;SDS011;12035;49.978;8.298;2024-02-21T16:59:04;5.78;;;1.65;;
23712;SDS011;12035;49.978;8.298;2024-02-21T17:04:01;5.72;;;1.70;;
23712;SDS011;12035;49.978;8.298;2024-02-21T17:09:00;6.40;;;1.88;;
23712;SDS011;12035;49.978;8.298;2024-02-21T17:13:57;5.25;;;1.60;;
23712;SDS011;12035;49.978;8.298;2024-02-21T17:18:54;8.85;;;1.85;;
23712;SDS011;12035;49.978;8.298;2024-02-21T17:23:51;7.93;;;2.08;;
23712;SDS011;12035;49.978;8.298;2024-02-21T17:28:50;6.30;;;1.65;;
23712;SDS011;12035;49.978;8.298;2024-02-21T17:33:47;5.97;;;1.70;;
23712;SDS011;12035;49.978;8.298;2024-02-21T17:38:44;7.47;;;1.95;;
23712;SDS011;12035;49.978;8.298;2024-02-21T17:43:43;6.05;;;2.13;;
23712;SDS011;12035;49.978;8.298;2024-02-21T17:48:42;7.63;;;1.92;;
23712;SDS011;12035;49.978;8.298;2024-02-21T17:53:39;5.25;;;1.90;;
23712;SDS011;12035;49.978;8.298;2024-02-21T17:58:36;6.80;;;2.38;;
23712;SDS011;12035;49.978;8.298;2024-02-21T18:03:33;5.85;;;2.08;;
23712;SDS011;12035;49.978;8.298;2024-02-21T18:08:32;3.10;;;1.58;;
23712;SDS011;12035;49.978;8.298;2024-02-21T18:13:29;7.28;;;2.40;;
23712;SDS011;12035;49.978;8.298;2024-02-21T18:18:28;4.38;;;1.80;;
23712;SDS011;12035;49.978;8.298;2024-02-21T18:23:25;4.63;;;1.83;;
23712;SDS011;12035;49.978;8.298;2024-02-21T18:28:25;7.05;;;1.90;;
23712;SDS011;12035;49.978;8.298;2024-02-21T18:33:22;6.50;;;1.90;;
23712;SDS011;12035;49.978;8.298;2024-02-21T18:38:19;7.75;;;2.50;;
23712;SDS011;12035;49.978;8.298;2024-02-21T18:43:16;7.88;;;2.10;;
23712;SDS011;12035;49.978;8.298;2024-02-21T18:48:15;8.35;;;2.47;;
23712;SDS011;12035;49.978;8.298;2024-02-21T18:53:12;6.80;;;2.15;;
23712;SDS011;12035;49.978;8.298;2024-02-21T18:58:09;8.15;;;2.10;;
23712;SDS011;12035;49.978;8.298;2024-02-21T19:03:06;7.25;;;3.00;;
23712;SDS011;12035;49.978;8.298;2024-02-21T19:08:05;10.50;;;3.22;;
23712;SDS011;12035;49.978;8.298;2024-02-21T19:13:02;6.45;;;2.13;;
23712;SDS011;12035;49.978;8.298;2024-02-21T19:18:01;6.95;;;2.33;;
23712;SDS011;12035;49.978;8.298;2024-02-21T19:22:58;6.22;;;2.05;;
23712;SDS011;12035;49.978;8.298;2024-02-21T19:27:56;6.65;;;2.17;;
23712;SDS011;12035;49.978;8.298;2024-02-21T19:32:53;6.97;;;2.58;;
23712;SDS011;12035;49.978;8.298;2024-02-21T19:37:50;4.90;;;1.92;;
23712;SDS011;12035;49.978;8.298;2024-02-21T19:42:48;7.78;;;2.67;;
23712;SDS011;12035;49.978;8.298;2024-02-21T19:47:46;5.72;;;2.38;;
23712;SDS011;12035;49.978;8.298;2024-02-21T19:52:43;8.68;;;2.22;;
23712;SDS011;12035;49.978;8.298;2024-02-21T19:57:40;4.43;;;2.20;;
23712;SDS011;12035;49.978;8.298;2024-02-21T20:02:37;5.47;;;2.47;;
23712;SDS011;12035;49.978;8.298;2024-02-21T20:07:36;5.93;;;2.20;;
23712;SDS011;12035;49.978;8.298;2024-02-21T20:12:33;6.68;;;2.47;;
23712;SDS011;12035;49.978;8.298;2024-02-21T20:17:30;4.75;;;1.90;;
23712;SDS011;12035;49.978;8.298;2024-02-21T20:22:27;6.63;;;3.10;;
23712;SDS011;12035;49.978;8.298;2024-02-21T20:27:26;6.13;;;2.10;;
23712;SDS011;12035;49.978;8.298;2024-02-21T20:32:23;6.97;;;2.20;;
23712;SDS011;12035;49.978;8.298;2024-02-21T20:37:20;5.25;;;1.88;;
23712;SDS011;12035;49.978;8.298;2024-02-21T20:42:17;7.93;;;1.95;;
23712;SDS011;12035;49.978;8.298;2024-02-21T20:47:18;4.53;;;1.83;;
23712;SDS011;12035;49.978;8.298;2024-02-21T20:52:18;6.50;;;2.38;;
23712;SDS011;12035;49.978;8.298;2024-02-21T20:57:15;6.93;;;2.10;;
23712;SDS011;12035;49.978;8.298;2024-02-21T21:02:12;7.43;;;2.63;;
23712;SDS011;12035;49.978;8.298;2024-02-21T21:07:11;5.80;;;2.22;;
23712;SDS011;12035;49.978;8.298;2024-02-21T21:12:08;5.30;;;1.70;;
23712;SDS011;12035;49.978;8.298;2024-02-21T21:17:05;4.45;;;1.58;;
23712;SDS011;12035;49.978;8.298;2024-02-21T21:22:02;4.38;;;1.67;;
23712;SDS011;12035;49.978;8.298;2024-02-21T21:27:02;3.55;;;1.38;;
23712;SDS011;12035;49.978;8.298;2024-02-21T21:32:00;5.85;;;1.90;;
23712;SDS011;12035;49.978;8.298;2024-02-21T21:36:57;6.43;;;1.80;;
23712;SDS011;12035;49.978;8.298;2024-02-21T21:41:54;6.22;;;1.50;;
23712;SDS011;12035;49.978;8.298;2024-02-21T21:46:52;4.40;;;1.65;;
23712;SDS011;12035;49.978;8.298;2024-02-21T21:51:49;3.88;;;1.35;;
23712;SDS011;12035;49.978;8.298;2024-02-21T21:56:46;2.55;;;1.20;;
23712;SDS011;12035;49.978;8.298;2024-02-21T22:01:43;2.38;;;1.10;;
23712;SDS011;12035;49.978;8.298;2024-02-21T22:06:41;2.97;;;1.33;;
23712;SDS011;12035;49.978;8.298;2024-02-21T22:11:40;4.28;;;1.40;;
23712;SDS011;12035;49.978;8.298;2024-02-21T22:16:37;2.97;;;1.38;;
23712;SDS011;12035;49.978;8.298;2024-02-21T22:21:34;2.83;;;1.48;;
23712;SDS011;12035;49.978;8.298;2024-02-21T22:26:32;3.38;;;1.30;;
23712;SDS011;12035;49.978;8.298;2024-02-21T22:31:30;2.47;;;1.30;;
23712;SDS011;12035;49.978;8.298;2024-02-21T22:36:27;2.75;;;1.20;;
23712;SDS011;12035;49.978;8.298;2024-02-21T22:41:25;2.35;;;1.42;;
23712;SDS011;12035;49.978;8.298;2024-02-21T22:46:23;4.55;;;1.60;;
23712;SDS011;12035;49.978;8.298;2024-02-21T22:51:20;4.68;;;1.55;;
23712;SDS011;12035;49.978;8.298;2024-02-21T22:56:18;2.95;;;1.58;;
23712;SDS011;12035;49.978;8.298;2024-02-21T23:01:15;3.90;;;1.33;;
23712;SDS011;12035;49.978;8.298;2024-02-21T23:06:14;3.30;;;1.60;;
23712;SDS011;12035;49.978;8.298;2024-02-21T23:11:11;4.50;;;1.60;;
23712;SDS011;12035;49.978;8.298;2024-02-21T23:16:08;2.83;;;1.42;;
23712;SDS011;12035;49.978;8.298;2024-02-21T23:21:09;3.45;;;1.38;;
23712;SDS011;12035;49.978;8.298;2024-02-21T23:26:08;1.90;;;1.10;;
23712;SDS011;12035;49.978;8.298;2024-02-21T23:31:05;2.70;;;1.40;;
23712;SDS011;12035;49.978;8.298;2024-02-21T23:36:02;2.25;;;1.05;;
23712;SDS011;12035;49.978;8.298;2024-02-21T23:41:01;3.22;;;1.38;;
23712;SDS011;12035;49.978;8.298;2024-02-21T23:45:59;3.03;;;1.25;;
23712;SDS011;12035;49.978;8.298;2024-02-21T23:50:56;2.58;;;1.23;;
23712;SDS011;12035;49.978;8.298;2024-02-21T23:55:53;2.10;;;1.10;;
